Hlavní strana
METAR-TAF:

METAR-TAF

Letiště :

Malindi, Keňa

zeměpisná šířka: 03-14S, zeměpisná délka: 040-06E, výška: 20 m

Aktuální stav počasí

Zpráva byla vytvořena před 1 hodinou a 18 minutami, v 18:00 UTC
Jihojihovýchodní vítr 6 kt
Teplota 27°C
Vlhkost vzduchu 89%
Tlak 1013 hPa
Viditelnost 10 km a více
Žádná oblačnost pod 1500 m, nevyskytují se cumulonimby.

METAR: HKML 171800Z 15006KT CAVOK 27/25 Q1013

Čas: 22:18 (19:18 UTC)


TAF: chybějící

Stav a předpovědi počasí z více než 4 000 letišť (zprávy METAR a TAF).

Červené a žluté tečky na mapě představují dostupné meteorologické stanice.

Když kurzor umístíte na tečku, zobrazí se název stanice.

Pak kliknutím zobrazíte stav a předpověď počasí.

Chcete-li změnit mapu, kliknutím na zelené tlačítko se znaménkem +mapu přiblížíte, kliknutím na zelené tlačítko se znaménkem – mapu oddálíte a kliknutím na zelené šipky přejdete na sousední mapy.


METAR-TAF: